Time;durP1;ratioP1;P1;durP2;ratioP2;P2;SDS_P1;SDS_P2;PMS_P1;PMS_P2;Temp;Humidity;BMP_temperature;BMP_pressure;BME280_temperature;BME280_humidity;BME280_pressure;Samples;Min_cycle;Max_cycle;Signal;HPM_P1;HPM_P2
2022/10/29 00:03:13;;;;;;;5.50;2.00;;;16.10;99.90;;;;;;10455759;28;20444;-62
2022/10/29 00:08:13;;;;;;;5.65;1.60;;;16.00;99.90;;;;;;10454756;28;20028;-62
2022/10/29 00:13:14;;;;;;;5.80;2.45;;;16.00;99.90;;;;;;10459115;28;20025;-62
2022/10/29 00:18:15;;;;;;;4.03;1.85;;;16.00;99.90;;;;;;10456004;28;20405;-62
2022/10/29 00:23:15;;;;;;;5.70;1.70;;;16.00;99.90;;;;;;10452116;28;20162;-62
2022/10/29 00:28:16;;;;;;;4.57;1.90;;;15.90;99.90;;;;;;10457499;28;20393;-62
2022/10/29 00:33:17;;;;;;;3.83;1.48;;;15.90;99.90;;;;;;10458626;28;20490;-62
2022/10/29 00:38:18;;;;;;;5.57;2.03;;;15.90;99.90;;;;;;10458679;28;20082;-62
2022/10/29 00:43:21;;;;;;;5.60;1.63;;;15.90;99.90;;;;;;10457212;28;20021;-62
2022/10/29 00:48:26;;;;;;;2.60;1.33;;;15.80;99.90;;;;;;10453899;28;20045;-62
2022/10/29 00:53:31;;;;;;;5.45;1.83;;;15.80;99.90;;;;;;10455022;28;20401;-62
2022/10/29 00:58:32;;;;;;;5.45;1.73;;;15.80;99.90;;;;;;10455294;28;20108;-62
2022/10/29 01:03:33;;;;;;;5.93;1.83;;;15.80;99.90;;;;;;10458287;28;20497;-62
2022/10/29 01:08:34;;;;;;;4.40;1.52;;;15.80;99.90;;;;;;10455856;28;20033;-63
2022/10/29 01:14:13;;;;;;;3.75;1.80;;;15.80;99.90;;;;;;10469198;28;20978;-62
2022/10/29 01:19:32;;;;;;;4.53;1.42;;;15.80;99.90;;;;;;10390351;28;20121;-62
2022/10/29 01:24:45;;;;;;;4.82;1.58;;;15.70;99.90;;;;;;10446253;28;20037;-64
2022/10/29 01:30:02;;;;;;;3.25;1.40;;;15.70;99.90;;;;;;10454388;28;20396;-62
2022/10/29 01:35:17;;;;;;;4.32;1.65;;;15.70;99.90;;;;;;10460779;28;20082;-62
2022/10/29 01:40:33;;;;;;;4.78;1.48;;;15.70;99.90;;;;;;10459584;28;20123;-63
2022/10/29 01:45:47;;;;;;;5.25;1.40;;;15.60;99.90;;;;;;10462696;28;20133;-63
2022/10/29 01:50:53;;;;;;;4.82;1.88;;;15.70;99.90;;;;;;10463011;28;20031;-63
2022/10/29 01:55:54;;;;;;;4.78;1.60;;;15.60;99.90;;;;;;10464207;28;20052;-63
2022/10/29 02:00:58;;;;;;;2.78;1.60;;;15.60;99.90;;;;;;10462054;28;20052;-63
2022/10/29 02:06:05;;;;;;;6.03;1.58;;;15.60;99.90;;;;;;10459724;28;20389;-62
2022/10/29 02:11:18;;;;;;;6.82;1.70;;;15.60;99.90;;;;;;10459309;28;20036;-62
2022/10/29 02:16:21;;;;;;;5.47;2.00;;;15.60;99.90;;;;;;10459668;28;20021;-63
2022/10/29 02:21:22;;;;;;;3.40;1.75;;;15.50;99.90;;;;;;10462357;28;20068;-62
2022/10/29 02:26:22;;;;;;;6.32;1.70;;;15.50;99.90;;;;;;10460743;28;20128;-62
2022/10/29 02:31:23;;;;;;;4.80;1.73;;;15.50;99.90;;;;;;10458176;28;20636;-62
2022/10/29 02:36:24;;;;;;;4.38;1.73;;;15.50;99.90;;;;;;10458033;28;20033;-62
2022/10/29 02:41:24;;;;;;;3.92;1.55;;;15.50;99.90;;;;;;10462174;28;20049;-61
2022/10/29 02:46:25;;;;;;;5.07;1.70;;;15.40;99.90;;;;;;10462977;28;20033;-62
2022/10/29 02:51:26;;;;;;;5.35;1.77;;;15.40;99.90;;;;;;10462855;28;20029;-62
2022/10/29 02:56:26;;;;;;;3.78;1.63;;;15.40;99.90;;;;;;10457127;28;20141;-62
2022/10/29 03:01:27;;;;;;;4.47;1.55;;;15.40;99.90;;;;;;10459559;28;20041;-62
2022/10/29 03:06:28;;;;;;;3.75;1.70;;;15.40;99.90;;;;;;10460614;28;20110;-61
2022/10/29 03:11:28;;;;;;;4.55;1.50;;;15.40;99.90;;;;;;10462430;28;20029;-61
2022/10/29 03:16:29;;;;;;;2.72;1.40;;;15.30;99.90;;;;;;10460105;28;20120;-62
2022/10/29 03:21:30;;;;;;;4.00;1.60;;;15.40;99.90;;;;;;10454607;28;20029;-62
2022/10/29 03:26:31;;;;;;;5.10;1.80;;;15.30;99.90;;;;;;10456411;28;20041;-62
2022/10/29 03:31:31;;;;;;;5.00;2.25;;;15.30;99.90;;;;;;10457655;28;20025;-62
2022/10/29 03:36:32;;;;;;;5.50;1.60;;;15.30;99.90;;;;;;10453621;28;20082;-64
2022/10/29 03:41:33;;;;;;;2.67;1.75;;;15.30;99.90;;;;;;10457461;28;20044;-61
2022/10/29 03:46:33;;;;;;;3.83;1.60;;;15.30;99.90;;;;;;10459300;28;20021;-62
2022/10/29 03:51:34;;;;;;;3.15;1.75;;;15.30;99.90;;;;;;10456505;28;20025;-62
2022/10/29 03:56:35;;;;;;;3.58;1.40;;;15.20;99.90;;;;;;10459138;28;20193;-62
2022/10/29 04:01:36;;;;;;;3.90;1.88;;;15.20;99.90;;;;;;10458770;28;20033;-64
2022/10/29 04:06:36;;;;;;;4.38;1.60;;;15.20;99.90;;;;;;10457275;28;20181;-62
2022/10/29 04:11:37;;;;;;;3.80;1.55;;;15.20;99.90;;;;;;10453480;28;20151;-62
2022/10/29 04:16:38;;;;;;;2.80;1.52;;;15.20;99.90;;;;;;10457015;28;20029;-63
2022/10/29 04:21:38;;;;;;;2.78;1.60;;;15.20;99.90;;;;;;10455664;28;20561;-62
2022/10/29 04:26:42;;;;;;;1.77;1.33;;;15.20;99.90;;;;;;10455980;28;20040;-62
2022/10/29 04:31:43;;;;;;;2.50;1.50;;;15.20;99.90;;;;;;10456916;28;20035;-65
2022/10/29 04:36:44;;;;;;;3.03;1.90;;;15.20;99.90;;;;;;10453507;28;20536;-62
2022/10/29 04:41:48;;;;;;;3.30;1.50;;;15.20;99.90;;;;;;10456556;28;20021;-62
2022/10/29 04:46:49;;;;;;;2.67;1.90;;;15.10;99.90;;;;;;10457774;28;20102;-62
2022/10/29 04:51:49;;;;;;;1.90;1.48;;;15.10;99.90;;;;;;10461336;28;20110;-62
2022/10/29 04:56:50;;;;;;;2.25;1.38;;;15.10;99.90;;;;;;10456754;28;20036;-62
2022/10/29 05:01:51;;;;;;;2.20;1.40;;;15.10;99.90;;;;;;10454940;28;20414;-63
2022/10/29 05:06:52;;;;;;;1.67;1.27;;;15.10;99.90;;;;;;10455339;28;20025;-62
2022/10/29 05:11:52;;;;;;;4.43;1.75;;;15.10;99.90;;;;;;10456950;28;20034;-62
2022/10/29 05:16:53;;;;;;;3.38;1.60;;;15.10;99.90;;;;;;10456180;28;20489;-66
2022/10/29 05:21:54;;;;;;;1.73;1.25;;;15.10;99.90;;;;;;10457132;28;20032;-62
2022/10/29 05:26:54;;;;;;;1.95;1.55;;;15.10;99.90;;;;;;10451852;28;20034;-61
2022/10/29 05:31:55;;;;;;;3.55;1.80;;;15.00;99.90;;;;;;10454300;28;20704;-62
2022/10/29 05:36:56;;;;;;;1.98;1.50;;;15.00;99.90;;;;;;10453744;28;20020;-64
2022/10/29 05:41:56;;;;;;;2.17;1.55;;;15.00;99.90;;;;;;10452568;28;20499;-62
2022/10/29 05:46:57;;;;;;;1.60;1.38;;;15.00;99.90;;;;;;10452664;28;20025;-62
2022/10/29 05:51:58;;;;;;;3.60;1.60;;;15.00;99.90;;;;;;10454948;28;20033;-62
2022/10/29 05:56:59;;;;;;;2.40;1.60;;;15.00;99.90;;;;;;10453565;28;20033;-62
2022/10/29 06:02:00;;;;;;;2.78;1.60;;;15.00;99.90;;;;;;10441683;28;20083;-62
2022/10/29 06:07:00;;;;;;;4.47;1.85;;;15.00;99.90;;;;;;10449390;28;20445;-61
2022/10/29 06:12:01;;;;;;;2.75;1.83;;;15.00;99.90;;;;;;10451504;28;20033;-62
2022/10/29 06:17:02;;;;;;;4.93;2.33;;;15.00;99.90;;;;;;10450483;28;20013;-64
2022/10/29 06:22:04;;;;;;;3.45;1.80;;;15.00;99.90;;;;;;10456842;28;20025;-62
2022/10/29 06:27:05;;;;;;;3.53;1.70;;;15.00;99.90;;;;;;10438263;28;20028;-62
2022/10/29 06:32:05;;;;;;;3.50;2.08;;;15.00;99.90;;;;;;10444268;28;20044;-61
2022/10/29 06:37:06;;;;;;;5.95;2.22;;;15.00;99.90;;;;;;10437123;28;20120;-61
2022/10/29 06:42:07;;;;;;;4.47;2.70;;;15.00;99.90;;;;;;10433626;28;20040;-63
2022/10/29 06:47:07;;;;;;;6.53;2.22;;;15.00;99.90;;;;;;10449407;28;20065;-62
2022/10/29 06:52:08;;;;;;;3.42;1.92;;;15.00;99.90;;;;;;10455754;28;20519;-61
2022/10/29 06:57:09;;;;;;;4.10;2.42;;;15.00;99.90;;;;;;10457331;28;20043;-61
2022/10/29 07:02:12;;;;;;;3.42;2.10;;;15.00;99.90;;;;;;10444254;28;20017;-63
2022/10/29 07:07:13;;;;;;;4.43;2.40;;;15.00;99.90;;;;;;10416523;28;20412;-69
2022/10/29 07:12:14;;;;;;;5.38;2.92;;;15.00;99.90;;;;;;10436714;28;20025;-63
2022/10/29 07:17:14;;;;;;;5.40;2.75;;;15.00;99.90;;;;;;10437026;28;20408;-61
2022/10/29 07:22:15;;;;;;;5.05;2.35;;;15.00;99.90;;;;;;10405827;28;20371;-61
2022/10/29 07:27:16;;;;;;;5.28;3.03;;;15.00;99.90;;;;;;10362992;28;20440;-61
2022/10/29 07:32:16;;;;;;;6.80;2.65;;;15.00;99.90;;;;;;10355098;28;20032;-61
2022/10/29 07:37:17;;;;;;;4.70;2.58;;;15.00;99.90;;;;;;10334525;28;20291;-61
2022/10/29 07:42:18;;;;;;;6.25;2.90;;;15.00;99.90;;;;;;10355686;28;20430;-61
2022/10/29 07:47:19;;;;;;;5.00;2.67;;;15.00;99.90;;;;;;10350068;28;20056;-61
2022/10/29 07:52:19;;;;;;;4.88;2.75;;;15.00;99.90;;;;;;10358014;28;20064;-61
2022/10/29 07:57:21;;;;;;;7.55;3.30;;;15.10;99.90;;;;;;10345121;28;20184;-63
2022/10/29 08:02:22;;;;;;;7.82;3.00;;;15.10;99.90;;;;;;10348859;28;20223;-61
2022/10/29 08:07:22;;;;;;;7.75;3.55;;;15.10;99.90;;;;;;10325039;28;20073;-63
2022/10/29 08:12:23;;;;;;;6.85;3.00;;;15.10;99.90;;;;;;10344307;28;20025;-61
2022/10/29 08:17:24;;;;;;;6.85;3.22;;;15.10;99.90;;;;;;10350021;28;20624;-62
2022/10/29 08:22:24;;;;;;;6.03;2.75;;;15.10;99.90;;;;;;10354834;28;20882;-62
2022/10/29 08:27:25;;;;;;;5.57;3.53;;;15.10;99.90;;;;;;10346240;28;20032;-66
2022/10/29 08:32:26;;;;;;;7.30;3.40;;;15.10;99.90;;;;;;10358646;28;20126;-61
2022/10/29 08:37:27;;;;;;;7.25;3.35;;;15.20;99.90;;;;;;10352184;28;20254;-62
2022/10/29 08:42:27;;;;;;;8.18;3.65;;;15.20;99.90;;;;;;10363502;28;20045;-63
2022/10/29 08:47:34;;;;;;;8.73;3.65;;;15.20;99.90;;;;;;10372140;28;20114;-62
2022/10/29 08:52:39;;;;;;;9.07;4.22;;;15.20;99.90;;;;;;10363772;28;20274;-63
2022/10/29 08:57:47;;;;;;;7.75;3.72;;;15.20;99.90;;;;;;10370480;28;20051;-63
2022/10/29 09:02:55;;;;;;;9.00;3.85;;;15.30;99.90;;;;;;10372695;28;20021;-62
2022/10/29 09:08:14;;;;;;;7.60;3.60;;;15.30;99.90;;;;;;10357993;28;20178;-62
2022/10/29 09:13:47;;;;;;;8.55;3.90;;;15.40;99.90;;;;;;10366275;28;20040;-63
2022/10/29 09:18:57;;;;;;;9.48;4.05;;;15.40;99.90;;;;;;10333408;28;20303;-64
2022/10/29 09:24:04;;;;;;;13.50;4.95;;;15.40;99.90;;;;;;10374539;28;20503;-64
2022/10/29 09:29:27;;;;;;;10.90;4.53;;;15.50;99.90;;;;;;10374602;28;20035;-64
2022/10/29 09:34:49;;;;;;;8.57;4.47;;;15.50;99.90;;;;;;10370935;28;20033;-64
2022/10/29 09:39:52;;;;;;;10.63;4.38;;;15.50;99.90;;;;;;10374483;28;20051;-64
2022/10/29 09:44:57;;;;;;;11.43;4.47;;;15.60;99.90;;;;;;10366283;28;20017;-63
2022/10/29 09:50:09;;;;;;;7.93;4.13;;;15.60;99.90;;;;;;10370641;28;20032;-64
2022/10/29 09:55:19;;;;;;;9.77;4.50;;;15.60;99.90;;;;;;10376542;28;20029;-63
2022/10/29 10:00:23;;;;;;;8.48;3.88;;;15.60;99.90;;;;;;10370556;28;20413;-63
2022/10/29 10:05:31;;;;;;;6.65;3.90;;;15.60;99.90;;;;;;10384951;28;20448;-63
2022/10/29 10:10:34;;;;;;;7.25;4.10;;;15.60;99.90;;;;;;10379152;28;20183;-64
2022/10/29 10:15:36;;;;;;;5.72;4.03;;;15.70;99.90;;;;;;10385682;28;20714;-64
2022/10/29 10:20:58;;;;;;;9.05;4.50;;;15.70;99.90;;;;;;10395567;28;20040;-64
2022/10/29 10:25:59;;;;;;;7.10;4.18;;;15.70;99.90;;;;;;10377346;28;20719;-63
2022/10/29 10:31:15;;;;;;;9.23;4.57;;;15.60;99.90;;;;;;10381862;28;20469;-63
2022/10/29 10:36:20;;;;;;;9.95;5.18;;;15.80;99.90;;;;;;10376244;28;20033;-64
2022/10/29 10:41:28;;;;;;;10.73;5.30;;;15.90;99.90;;;;;;10375398;28;20378;-63
2022/10/29 10:46:41;;;;;;;10.93;5.80;;;15.90;99.90;;;;;;10376204;28;20037;-64
2022/10/29 10:52:11;;;;;;;12.27;5.38;;;15.90;99.90;;;;;;10393408;28;20028;-63
2022/10/29 10:57:12;;;;;;;9.95;5.00;;;15.90;99.90;;;;;;10374789;28;20488;-63
2022/10/29 11:02:25;;;;;;;12.55;5.20;;;16.00;99.90;;;;;;10361617;28;20041;-60
2022/10/29 11:07:32;;;;;;;18.58;8.13;;;16.00;99.90;;;;;;10361183;28;20276;-63
2022/10/29 11:12:49;;;;;;;21.33;11.00;;;16.00;99.90;;;;;;10373767;28;20040;-63
2022/10/29 11:17:58;;;;;;;26.60;11.20;;;16.20;99.90;;;;;;10365079;28;20044;-62
2022/10/29 11:23:47;;;;;;;22.38;10.75;;;16.50;99.90;;;;;;10383288;28;20044;-62
2022/10/29 11:29:20;;;;;;;27.15;12.05;;;16.60;99.90;;;;;;10364131;28;20367;-65
2022/10/29 11:34:42;;;;;;;25.02;10.80;;;16.80;99.90;;;;;;10368665;28;20510;-63
2022/10/29 11:40:02;;;;;;;25.88;11.73;;;16.90;99.90;;;;;;10374800;28;20354;-63
2022/10/29 11:45:04;;;;;;;26.90;12.55;;;16.90;99.90;;;;;;10373017;28;20032;-63
2022/10/29 11:50:13;;;;;;;23.33;11.90;;;17.10;99.90;;;;;;10382749;28;20037;-63
2022/10/29 11:55:20;;;;;;;23.02;10.30;;;17.30;99.90;;;;;;10374318;28;20143;-63
2022/10/29 12:00:23;;;;;;;21.70;10.65;;;17.60;99.90;;;;;;10374213;28;20440;-63
2022/10/29 12:06:00;;;;;;;18.08;9.80;;;17.70;99.90;;;;;;10372669;28;20044;-63
2022/10/29 12:11:10;;;;;;;25.63;10.90;;;17.70;99.90;;;;;;10350364;28;20041;-62
2022/10/29 12:16:37;;;;;;;24.38;10.82;;;17.60;99.90;;;;;;10352178;28;20025;-65
2022/10/29 12:21:54;;;;;;;20.73;9.98;;;17.70;99.90;;;;;;10371884;28;20033;-63
2022/10/29 12:27:13;;;;;;;22.73;10.18;;;17.70;99.90;;;;;;10365699;28;20234;-63
2022/10/29 12:32:51;;;;;;;22.35;10.13;;;17.70;99.90;;;;;;10366082;28;20113;-67
2022/10/29 12:38:14;;;;;;;16.63;9.32;;;17.80;99.90;;;;;;10349880;28;20076;-63
2022/10/29 12:43:33;;;;;;;22.80;8.95;;;17.80;99.90;;;;;;10373895;28;20043;-64
2022/10/29 12:48:48;;;;;;;23.50;9.90;;;17.80;99.90;;;;;;10377098;28;20100;-68
2022/10/29 12:54:03;;;;;;;17.25;9.15;;;17.90;99.90;;;;;;10360701;28;20123;-64
2022/10/29 12:59:28;;;;;;;20.52;9.07;;;17.80;99.90;;;;;;10355389;28;20663;-63
2022/10/29 13:04:30;;;;;;;21.15;9.80;;;17.80;99.90;;;;;;10358040;28;20501;-65
2022/10/29 13:09:35;;;;;;;18.23;8.93;;;17.70;99.90;;;;;;10359976;28;20094;-65
2022/10/29 13:15:01;;;;;;;22.80;9.65;;;17.70;99.90;;;;;;10364320;28;20059;-65
2022/10/29 13:20:24;;;;;;;21.30;9.65;;;17.80;99.90;;;;;;10380409;28;20578;-65
2022/10/29 13:25:36;;;;;;;21.17;8.65;;;17.90;99.90;;;;;;10374233;28;20064;-65
2022/10/29 13:30:41;;;;;;;19.30;8.70;;;17.90;99.90;;;;;;10380698;28;20623;-65
2022/10/29 13:35:54;;;;;;;18.10;9.13;;;18.00;99.90;;;;;;10382899;28;20461;-65
2022/10/29 13:41:10;;;;;;;23.00;9.45;;;18.20;99.90;;;;;;10376807;28;20530;-64
2022/10/29 13:46:17;;;;;;;24.77;10.10;;;18.30;99.90;;;;;;10379286;28;20025;-64
2022/10/29 13:51:28;;;;;;;20.80;9.15;;;18.30;99.90;;;;;;10390106;28;20485;-64
2022/10/29 13:56:45;;;;;;;19.55;9.20;;;18.30;99.90;;;;;;10379909;28;20684;-64
2022/10/29 14:01:59;;;;;;;16.35;8.38;;;18.60;99.90;;;;;;10373191;28;20608;-64
2022/10/29 14:07:05;;;;;;;16.13;8.32;;;19.00;99.90;;;;;;10376555;28;20918;-66
2022/10/29 14:12:09;;;;;;;14.02;7.30;;;18.70;99.90;;;;;;10375020;28;20403;-64
2022/10/29 14:17:17;;;;;;;16.00;7.40;;;18.70;99.90;;;;;;10377588;28;20189;-65
2022/10/29 14:22:26;;;;;;;15.85;7.57;;;18.70;99.90;;;;;;10388385;28;20300;-65
2022/10/29 14:27:27;;;;;;;10.85;6.15;;;18.70;99.90;;;;;;10376234;28;20623;-65
2022/10/29 14:32:28;;;;;;;14.13;6.97;;;18.70;99.90;;;;;;10375212;28;20625;-65
2022/10/29 14:37:40;;;;;;;13.27;6.35;;;18.60;99.90;;;;;;10373099;28;20037;-65
2022/10/29 14:42:47;;;;;;;14.52;6.60;;;18.60;99.90;;;;;;10376228;28;20284;-64
2022/10/29 14:47:51;;;;;;;12.85;7.40;;;18.60;99.90;;;;;;10378331;28;20033;-64
2022/10/29 14:53:16;;;;;;;15.70;6.45;;;18.60;99.90;;;;;;10387322;28;20017;-64
2022/10/29 14:58:26;;;;;;;19.30;6.88;;;18.60;99.90;;;;;;10378905;28;20038;-66
2022/10/29 15:03:30;;;;;;;17.95;7.15;;;18.50;99.90;;;;;;10376763;28;20106;-64
2022/10/29 15:08:37;;;;;;;14.38;6.70;;;18.40;99.90;;;;;;10375731;28;20032;-64
2022/10/29 15:13:37;;;;;;;11.70;6.53;;;18.30;99.90;;;;;;10368540;28;20036;-64
2022/10/29 15:18:38;;;;;;;14.90;7.13;;;18.20;99.90;;;;;;10378893;28;20040;-64
2022/10/29 15:23:43;;;;;;;17.92;6.90;;;18.10;99.90;;;;;;10381000;28;20048;-61
2022/10/29 15:28:46;;;;;;;15.57;6.47;;;18.10;99.90;;;;;;10375807;28;20046;-62
2022/10/29 15:33:50;;;;;;;12.88;6.10;;;18.00;99.90;;;;;;10376222;28;20221;-63
2022/10/29 15:39:07;;;;;;;14.52;6.50;;;18.00;99.90;;;;;;10375516;28;20717;-61
2022/10/29 15:44:29;;;;;;;10.75;5.72;;;18.00;99.90;;;;;;10375267;28;20043;-61
2022/10/29 15:49:30;;;;;;;13.68;6.32;;;18.20;99.90;;;;;;10377956;28;20318;-61
2022/10/29 15:54:32;;;;;;;12.80;6.28;;;17.90;99.90;;;;;;10374697;28;20102;-61
2022/10/29 15:59:33;;;;;;;15.15;7.40;;;17.80;99.90;;;;;;10368074;28;20453;-61
2022/10/29 16:04:34;;;;;;;13.57;6.25;;;17.80;99.90;;;;;;10373220;28;20033;-61
2022/10/29 16:09:36;;;;;;;10.23;5.45;;;17.80;99.90;;;;;;10373813;28;20032;-61
2022/10/29 16:14:36;;;;;;;12.00;6.70;;;17.70;99.90;;;;;;10362134;28;20127;-61
2022/10/29 16:19:37;;;;;;;13.07;5.95;;;17.70;99.90;;;;;;10381343;28;20036;-62
2022/10/29 16:24:42;;;;;;;15.45;6.70;;;17.70;99.90;;;;;;10359092;28;20552;-68
2022/10/29 16:29:43;;;;;;;11.45;6.30;;;17.60;99.90;;;;;;10357749;28;20937;-61
2022/10/29 16:34:44;;;;;;;11.15;6.07;;;17.60;99.90;;;;;;10371882;28;20369;-61
2022/10/29 16:39:45;;;;;;;14.23;5.82;;;17.60;99.90;;;;;;10452536;28;20033;-61
2022/10/29 16:44:45;;;;;;;15.70;6.28;;;17.60;99.90;;;;;;10454276;28;20035;-64
2022/10/29 16:49:47;;;;;;;13.13;5.82;;;17.60;99.90;;;;;;10468125;28;20041;-63
2022/10/29 16:54:48;;;;;;;12.38;6.13;;;17.50;99.90;;;;;;10447517;28;20052;-61
2022/10/29 16:59:49;;;;;;;11.50;5.40;;;17.50;99.90;;;;;;10451110;28;20040;-62
2022/10/29 17:04:50;;;;;;;11.63;5.25;;;17.50;99.90;;;;;;10452631;28;20412;-61
2022/10/29 17:09:50;;;;;;;10.57;5.05;;;17.50;99.90;;;;;;10447976;28;20146;-62
2022/10/29 17:14:51;;;;;;;11.10;5.22;;;17.50;99.90;;;;;;10455136;28;20046;-61
2022/10/29 17:19:52;;;;;;;12.50;5.63;;;17.40;99.90;;;;;;10445949;28;20040;-62
2022/10/29 17:24:53;;;;;;;13.30;6.10;;;17.40;99.90;;;;;;10456592;28;20045;-61
2022/10/29 17:29:53;;;;;;;16.05;5.68;;;17.40;99.90;;;;;;10454321;28;20029;-63
2022/10/29 17:34:55;;;;;;;16.10;6.82;;;17.40;99.90;;;;;;10450397;28;20410;-63
2022/10/29 17:39:55;;;;;;;11.35;5.70;;;17.40;99.90;;;;;;10453501;28;20048;-62
2022/10/29 17:44:56;;;;;;;11.88;5.55;;;17.40;99.90;;;;;;10444464;28;20489;-62
2022/10/29 17:49:57;;;;;;;11.85;5.15;;;17.40;99.90;;;;;;10419891;28;20026;-62
2022/10/29 17:54:57;;;;;;;11.82;5.80;;;17.30;99.90;;;;;;10430859;28;20108;-63
2022/10/29 17:59:58;;;;;;;13.40;5.82;;;17.30;99.90;;;;;;10417481;28;20037;-62
2022/10/29 18:04:59;;;;;;;11.05;5.30;;;17.30;99.90;;;;;;10437347;28;20021;-62
2022/10/29 18:10:00;;;;;;;12.77;6.03;;;17.30;99.90;;;;;;10431502;28;20033;-63
2022/10/29 18:15:00;;;;;;;9.50;5.63;;;17.30;99.90;;;;;;10433876;28;20482;-63
2022/10/29 18:20:01;;;;;;;11.23;5.20;;;17.20;99.90;;;;;;10452102;28;20111;-63
2022/10/29 18:25:02;;;;;;;13.80;5.93;;;17.20;99.90;;;;;;10440733;28;20033;-62
2022/10/29 18:30:03;;;;;;;10.07;5.55;;;17.20;99.90;;;;;;10444759;28;20026;-63
2022/10/29 18:35:04;;;;;;;11.00;7.07;;;17.20;99.90;;;;;;10443872;28;20025;-63
2022/10/29 18:40:05;;;;;;;12.10;5.22;;;17.20;99.90;;;;;;10433091;28;20124;-62
2022/10/29 18:45:06;;;;;;;13.70;5.45;;;17.20;99.90;;;;;;10445283;28;20112;-62
2022/10/29 18:50:07;;;;;;;12.90;5.55;;;17.20;99.90;;;;;;10446898;28;20033;-62
2022/10/29 18:55:08;;;;;;;8.65;4.80;;;17.20;99.90;;;;;;10445639;28;20045;-62
2022/10/29 19:00:09;;;;;;;12.45;5.47;;;17.20;99.90;;;;;;10442609;28;20087;-62
2022/10/29 19:05:10;;;;;;;14.20;5.28;;;17.20;99.90;;;;;;10427283;28;20021;-63
2022/10/29 19:10:11;;;;;;;15.10;6.28;;;17.10;99.90;;;;;;10442295;28;20036;-62
2022/10/29 19:15:11;;;;;;;10.70;5.35;;;17.10;99.90;;;;;;10437950;28;20037;-62
2022/10/29 19:20:12;;;;;;;10.10;5.70;;;17.10;99.90;;;;;;10441151;28;20068;-62
2022/10/29 19:25:13;;;;;;;10.63;6.10;;;17.10;99.90;;;;;;10442396;28;20188;-62
2022/10/29 19:30:14;;;;;;;12.48;5.72;;;17.10;99.90;;;;;;10430576;28;20040;-62
2022/10/29 19:35:15;;;;;;;10.27;6.63;;;17.00;99.90;;;;;;10429788;28;20401;-63
2022/10/29 19:40:16;;;;;;;12.25;6.00;;;17.00;99.90;;;;;;10432786;28;20041;-62
2022/10/29 19:45:18;;;;;;;8.27;4.72;;;17.00;99.90;;;;;;10427940;28;20013;-62
2022/10/29 19:50:19;;;;;;;10.52;6.10;;;17.00;99.90;;;;;;10429967;28;20410;-62
2022/10/29 19:55:19;;;;;;;11.52;5.47;;;17.00;99.90;;;;;;10428664;28;20025;-62
2022/10/29 20:00:20;;;;;;;10.20;5.57;;;17.00;99.90;;;;;;10427533;28;20190;-62
2022/10/29 20:05:21;;;;;;;9.63;5.15;;;16.90;99.90;;;;;;10421157;28;20045;-64
2022/10/29 20:10:22;;;;;;;10.98;5.65;;;16.90;99.90;;;;;;10427814;28;20107;-62
2022/10/29 20:15:23;;;;;;;7.57;4.95;;;16.90;99.90;;;;;;10434909;28;20065;-62
2022/10/29 20:20:24;;;;;;;8.98;5.32;;;16.90;99.90;;;;;;10435087;28;20129;-62
2022/10/29 20:25:25;;;;;;;9.85;5.60;;;16.90;99.90;;;;;;10441470;28;20052;-62
2022/10/29 20:30:26;;;;;;;11.88;5.75;;;16.90;99.90;;;;;;10423183;28;20160;-64
2022/10/29 20:35:26;;;;;;;9.70;5.75;;;16.90;99.90;;;;;;10423212;28;20036;-63
2022/10/29 20:40:27;;;;;;;9.93;5.50;;;16.80;99.90;;;;;;10421349;28;20394;-63
2022/10/29 20:45:28;;;;;;;11.88;5.68;;;16.90;99.90;;;;;;10424050;28;20013;-62
2022/10/29 20:50:29;;;;;;;8.68;5.68;;;16.80;99.90;;;;;;10420350;28;20040;-70
2022/10/29 20:55:30;;;;;;;8.95;5.20;;;16.80;99.90;;;;;;10431034;28;20029;-63
2022/10/29 21:00:30;;;;;;;8.38;5.03;;;16.80;99.90;;;;;;10428605;28;20041;-64
2022/10/29 21:05:31;;;;;;;9.00;5.60;;;16.80;99.90;;;;;;10430218;28;20515;-62
2022/10/29 21:10:32;;;;;;;7.68;5.07;;;16.80;99.90;;;;;;10418259;28;20211;-62
2022/10/29 21:15:36;;;;;;;11.52;5.78;;;16.70;99.90;;;;;;10419544;28;20022;-63
2022/10/29 21:20:36;;;;;;;8.23;5.28;;;16.70;99.90;;;;;;10423278;28;20028;-63
2022/10/29 21:25:37;;;;;;;9.43;4.97;;;16.70;99.90;;;;;;10428727;28;20712;-63
2022/10/29 21:30:38;;;;;;;10.32;4.93;;;16.70;99.90;;;;;;10445197;28;20028;-65
2022/10/29 21:35:38;;;;;;;9.35;5.28;;;16.70;99.90;;;;;;10448699;28;20029;-64
2022/10/29 21:40:40;;;;;;;11.57;5.53;;;16.70;99.90;;;;;;10446170;28;20111;-63
2022/10/29 21:45:41;;;;;;;8.50;5.75;;;16.70;99.90;;;;;;10445325;28;20025;-63
2022/10/29 21:50:42;;;;;;;10.43;5.20;;;16.70;99.90;;;;;;10451315;28;20036;-62
2022/10/29 21:55:43;;;;;;;10.82;5.18;;;16.60;99.90;;;;;;10454077;28;20426;-63
2022/10/29 22:00:44;;;;;;;13.57;5.70;;;16.60;99.90;;;;;;10453527;28;20158;-63
2022/10/29 22:05:45;;;;;;;10.65;5.30;;;16.60;99.90;;;;;;10439409;28;20021;-62
2022/10/29 22:10:45;;;;;;;9.88;5.35;;;16.60;99.90;;;;;;10450370;28;20037;-63
2022/10/29 22:15:46;;;;;;;14.13;5.22;;;16.60;99.90;;;;;;10448037;28;20021;-67
2022/10/29 22:20:47;;;;;;;12.15;5.38;;;16.50;99.90;;;;;;10431413;28;20042;-63
2022/10/29 22:25:50;;;;;;;10.05;5.43;;;16.60;99.90;;;;;;10442209;28;20047;-62
2022/10/29 22:30:59;;;;;;;11.43;6.50;;;16.50;99.90;;;;;;10441166;28;20128;-63
2022/10/29 22:36:09;;;;;;;10.60;5.32;;;16.50;99.90;;;;;;10445498;28;20288;-63
2022/10/29 22:41:11;;;;;;;12.00;5.72;;;16.50;99.90;;;;;;10454065;28;20102;-66
2022/10/29 22:46:13;;;;;;;11.30;6.45;;;16.50;99.90;;;;;;10449191;28;20596;-63
2022/10/29 22:51:17;;;;;;;11.98;5.93;;;16.50;99.90;;;;;;10458376;28;20025;-63
2022/10/29 22:56:21;;;;;;;13.82;5.45;;;16.50;99.90;;;;;;10452671;28;20067;-69
2022/10/29 23:01:24;;;;;;;9.40;5.35;;;16.40;99.90;;;;;;10455057;28;20057;-66
2022/10/29 23:06:26;;;;;;;9.32;5.22;;;16.40;99.90;;;;;;10451146;28;20025;-64
2022/10/29 23:11:29;;;;;;;8.77;5.40;;;16.40;99.90;;;;;;10454248;28;20059;-66
2022/10/29 23:16:32;;;;;;;8.02;4.85;;;16.40;99.90;;;;;;10453234;28;20485;-63
2022/10/29 23:21:33;;;;;;;8.38;5.15;;;16.40;99.90;;;;;;10456968;28;20114;-63
2022/10/29 23:26:34;;;;;;;7.70;5.32;;;16.40;99.90;;;;;;10456574;28;20051;-63
2022/10/29 23:31:34;;;;;;;11.52;5.82;;;16.40;99.90;;;;;;10461151;28;20041;-64
2022/10/29 23:36:35;;;;;;;8.93;5.30;;;16.40;99.90;;;;;;10459425;28;20810;-63
2022/10/29 23:41:36;;;;;;;10.70;5.28;;;16.30;99.90;;;;;;10457067;28;20103;-64
2022/10/29 23:46:37;;;;;;;8.95;5.60;;;16.30;99.90;;;;;;10452926;28;20029;-65
2022/10/29 23:51:37;;;;;;;9.65;5.68;;;16.30;99.90;;;;;;10461542;28;20033;-63
2022/10/29 23:56:38;;;;;;;10.60;5.50;;;16.30;99.90;;;;;;10462714;28;20036;-62
